Time,TemperatureF,DewpointF,PressureIn,WindDirection,WindDirectionDegrees,WindSpeedMPH,WindSpeedGustMPH,Humidity,HourlyPrecipIn,Conditions,Clouds,dailyrainin,SoftwareType,DateUTC
2013-04-26 00:11:00,46.0,36.0,-100.00,NW,321,4.0,6.0,68,0.00,,,0.00,,2013-04-26 07:11:00,
2013-04-26 00:22:00,46.0,36.0,-100.00,NW,321,4.0,6.0,68,0.00,,,0.00,,2013-04-26 07:22:00,
2013-04-26 00:31:00,46.0,36.0,-100.00,NW,321,4.0,6.0,68,0.00,,,0.00,,2013-04-26 07:31:00,
2013-04-26 00:42:00,46.0,36.0,-100.00,NW,321,4.0,6.0,68,0.00,,,0.00,,2013-04-26 07:42:00,
2013-04-26 00:52:00,46.0,36.0,-100.00,NW,321,4.0,6.0,68,0.00,,,0.00,,2013-04-26 07:52:00,
2013-04-26 01:21:00,46.0,39.0,-100.00,NW,325,4.0,9.0,75,0.00,,,0.00,,2013-04-26 08:21:00,
2013-04-26 01:31:00,46.0,39.0,-100.00,NW,325,4.0,9.0,75,0.00,,,0.00,,2013-04-26 08:31:00,
2013-04-26 01:42:00,46.0,39.0,-100.00,NW,325,4.0,9.0,75,0.00,,,0.00,,2013-04-26 08:42:00,
2013-04-26 01:51:00,46.0,39.0,-100.00,NW,325,4.0,9.0,75,0.00,,,0.00,,2013-04-26 08:51:00,
2013-04-26 01:53:00,46.0,38.0,-100.00,WNW,302,4.0,8.0,73,0.00,,,0.00,,2013-04-26 08:53:00,
2013-04-26 02:21:00,46.0,38.0,-100.00,WNW,302,4.0,8.0,73,0.00,,,0.00,,2013-04-26 09:21:00,
2013-04-26 02:33:00,46.0,38.0,-100.00,WNW,302,4.0,8.0,73,0.00,,,0.00,,2013-04-26 09:33:00,
2013-04-26 02:42:00,46.0,38.0,-100.00,WNW,302,4.0,8.0,73,0.00,,,0.00,,2013-04-26 09:42:00,
2013-04-26 03:12:00,44.0,34.0,-100.00,East,89,2.0,9.0,68,0.00,,,0.00,,2013-04-26 10:12:00,
2013-04-26 03:22:00,44.0,34.0,-100.00,East,89,2.0,9.0,68,0.00,,,0.00,,2013-04-26 10:22:00,
2013-04-26 03:33:00,44.0,34.0,-100.00,East,89,2.0,9.0,68,0.00,,,0.00,,2013-04-26 10:33:00,
2013-04-26 04:11:00,42.0,32.0,-100.00,ESE,106,2.0,7.0,68,0.00,,,0.00,,2013-04-26 11:11:00,
2013-04-26 04:22:00,42.0,32.0,-100.00,ESE,106,2.0,7.0,68,0.00,,,0.00,,2013-04-26 11:22:00,
2013-04-26 05:11:00,41.0,32.0,-100.00,ESE,119,3.0,5.0,70,0.00,,,0.00,,2013-04-26 12:11:00,
2013-04-26 05:21:00,41.0,32.0,-100.00,ESE,119,3.0,5.0,70,0.00,,,0.00,,2013-04-26 12:21:00,
2013-04-26 06:11:00,39.0,32.0,-100.00,ESE,122,3.0,4.0,76,0.00,,,0.00,,2013-04-26 13:11:00,
2013-04-26 07:21:00,40.0,35.0,-100.00,ESE,122,2.0,4.0,83,-99.99,,,0.00,,2013-04-26 14:21:00,
2013-04-26 08:12:00,45.0,41.0,-100.00,East,98,2.0,4.0,86,0.00,,,0.00,,2013-04-26 15:12:00,
2013-04-26 08:21:00,45.0,41.0,-100.00,East,98,2.0,4.0,86,0.00,,,0.00,,2013-04-26 15:21:00,
2013-04-26 08:33:00,45.0,41.0,-100.00,East,98,2.0,4.0,86,0.00,,,0.00,,2013-04-26 15:33:00,
2013-04-26 08:42:00,45.0,41.0,-100.00,East,98,2.0,4.0,86,0.00,,,0.00,,2013-04-26 15:42:00,
2013-04-26 08:52:00,45.0,41.0,-100.00,East,98,2.0,4.0,86,0.00,,,0.00,,2013-04-26 15:52:00,
2013-04-26 09:12:00,53.0,40.0,-100.00,WNW,290,2.0,4.0,62,0.00,,,0.00,,2013-04-26 16:12:00,
2013-04-26 09:23:00,53.0,40.0,-100.00,WNW,290,2.0,4.0,62,0.00,,,0.00,,2013-04-26 16:23:00,
2013-04-26 09:33:00,53.0,40.0,-100.00,WNW,290,2.0,4.0,62,0.00,,,0.00,,2013-04-26 16:33:00,
2013-04-26 09:42:00,53.0,40.0,-100.00,WNW,290,2.0,4.0,62,0.00,,,0.00,,2013-04-26 16:42:00,
2013-04-26 09:52:00,53.0,40.0,-100.00,WNW,290,2.0,4.0,62,0.00,,,0.00,,2013-04-26 16:52:00,
2013-04-26 10:21:00,63.0,34.0,-100.00,SSW,199,5.0,10.0,34,0.00,,,0.00,,2013-04-26 17:21:00,
2013-04-26 10:31:00,63.0,34.0,-100.00,SSW,199,5.0,10.0,34,0.00,,,0.00,,2013-04-26 17:31:00,
2013-04-26 10:41:00,63.0,34.0,-100.00,SSW,199,5.0,10.0,34,0.00,,,0.00,,2013-04-26 17:41:00,
2013-04-26 10:51:00,63.0,34.0,-100.00,SSW,199,5.0,10.0,34,0.00,,,0.00,,2013-04-26 17:51:00,
2013-04-26 11:11:00,67.0,22.0,-100.00,WNW,295,5.0,12.0,18,0.00,,,0.00,,2013-04-26 18:11:00,
2013-04-26 11:22:00,67.0,22.0,-100.00,WNW,295,5.0,12.0,18,0.00,,,0.00,,2013-04-26 18:22:00,
2013-04-26 11:33:00,67.0,22.0,-100.00,WNW,295,5.0,12.0,18,0.00,,,0.00,,2013-04-26 18:33:00,
2013-04-26 11:41:00,67.0,22.0,-100.00,WNW,295,5.0,12.0,18,0.00,,,0.00,,2013-04-26 18:41:00,
2013-04-26 11:51:00,67.0,22.0,-100.00,WNW,295,5.0,12.0,18,0.00,,,0.00,,2013-04-26 18:51:00,
2013-04-26 12:22:00,68.0,29.0,-100.00,SSE,149,6.0,12.0,23,0.00,,,0.00,,2013-04-26 19:22:00,
2013-04-26 12:31:00,68.0,29.0,-100.00,SSE,149,6.0,12.0,23,0.00,,,0.00,,2013-04-26 19:31:00,
2013-04-26 12:41:00,68.0,29.0,-100.00,SSE,149,6.0,12.0,23,0.00,,,0.00,,2013-04-26 19:41:00,
2013-04-26 12:52:00,68.0,29.0,-100.00,SSE,149,6.0,12.0,23,0.00,,,0.00,,2013-04-26 19:52:00,
2013-04-26 13:11:00,67.0,42.0,-100.00,West,279,5.0,15.0,40,0.00,,,0.00,,2013-04-26 20:11:00,
2013-04-26 13:21:00,67.0,42.0,-100.00,West,279,5.0,15.0,40,0.00,,,0.00,,2013-04-26 20:21:00,
2013-04-26 13:32:00,67.0,42.0,-100.00,West,279,5.0,15.0,40,0.00,,,0.00,,2013-04-26 20:32:00,
2013-04-26 13:41:00,67.0,42.0,-100.00,West,279,5.0,15.0,40,0.00,,,0.00,,2013-04-26 20:41:00,
2013-04-26 13:51:00,67.0,42.0,-100.00,West,279,5.0,15.0,40,0.00,,,0.00,,2013-04-26 20:51:00,
2013-04-26 14:11:00,66.0,42.0,-100.00,WNW,285,6.0,12.0,41,0.00,,,0.00,,2013-04-26 21:11:00,
2013-04-26 14:21:00,66.0,42.0,-100.00,WNW,285,6.0,12.0,41,0.00,,,0.00,,2013-04-26 21:21:00,
2013-04-26 14:32:00,66.0,42.0,-100.00,WNW,285,6.0,12.0,41,0.00,,,0.00,,2013-04-26 21:32:00,
2013-04-26 14:42:00,66.0,42.0,-100.00,WNW,285,6.0,12.0,41,0.00,,,0.00,,2013-04-26 21:42:00,
2013-04-26 14:52:00,66.0,42.0,-100.00,WNW,285,6.0,12.0,41,0.00,,,0.00,,2013-04-26 21:52:00,
2013-04-26 15:12:00,66.0,42.0,-100.00,West,281,6.0,10.0,41,0.00,,,0.00,,2013-04-26 22:12:00,
2013-04-26 15:22:00,66.0,42.0,-100.00,West,281,6.0,10.0,41,0.00,,,0.00,,2013-04-26 22:22:00,
2013-04-26 15:32:00,66.0,42.0,-100.00,West,281,6.0,10.0,41,0.00,,,0.00,,2013-04-26 22:32:00,
2013-04-26 15:42:00,66.0,42.0,-100.00,West,281,6.0,10.0,41,0.00,,,0.00,,2013-04-26 22:42:00,
2013-04-26 15:52:00,66.0,42.0,-100.00,West,281,6.0,10.0,41,0.00,,,0.00,,2013-04-26 22:52:00,
2013-04-26 16:21:00,66.0,41.0,-100.00,West,280,5.0,10.0,40,0.00,,,0.00,,2013-04-26 23:21:00,
2013-04-26 16:32:00,66.0,41.0,-100.00,West,280,5.0,10.0,40,0.00,,,0.00,,2013-04-26 23:32:00,
2013-04-26 16:42:00,66.0,41.0,-100.00,West,280,5.0,10.0,40,0.00,,,0.00,,2013-04-26 23:42:00,
2013-04-26 16:52:00,66.0,41.0,-100.00,West,280,5.0,10.0,40,0.00,,,0.00,,2013-04-26 23:52:00,
2013-04-26 17:11:00,64.0,42.0,-100.00,WNW,290,5.0,11.0,45,0.00,,,0.00,,2013-04-27 00:11:00,
2013-04-26 17:21:00,64.0,42.0,-100.00,WNW,290,5.0,11.0,45,0.00,,,0.00,,2013-04-27 00:21:00,
2013-04-26 17:32:00,64.0,42.0,-100.00,WNW,290,5.0,11.0,45,0.00,,,0.00,,2013-04-27 00:32:00,
2013-04-26 17:41:00,64.0,42.0,-100.00,WNW,290,5.0,11.0,45,0.00,,,0.00,,2013-04-27 00:41:00,
2013-04-26 17:51:00,64.0,42.0,-100.00,WNW,290,5.0,11.0,45,0.00,,,0.00,,2013-04-27 00:51:00,
2013-04-26 18:11:00,62.0,43.0,-100.00,WNW,298,5.0,10.0,49,0.00,,,0.00,,2013-04-27 01:11:00,
2013-04-26 18:21:00,62.0,43.0,-100.00,WNW,298,5.0,10.0,49,0.00,,,0.00,,2013-04-27 01:21:00,
2013-04-26 18:32:00,62.0,43.0,-100.00,WNW,298,5.0,10.0,49,0.00,,,0.00,,2013-04-27 01:32:00,
2013-04-26 18:41:00,62.0,43.0,-100.00,WNW,298,5.0,10.0,49,0.00,,,0.00,,2013-04-27 01:41:00,
2013-04-26 18:52:00,62.0,43.0,-100.00,WNW,298,5.0,10.0,49,0.00,,,0.00,,2013-04-27 01:52:00,
2013-04-26 19:11:00,57.0,42.0,-100.00,WNW,298,5.0,9.0,57,0.00,,,0.00,,2013-04-27 02:11:00,
2013-04-26 19:22:00,57.0,42.0,-100.00,WNW,298,5.0,9.0,57,0.00,,,0.00,,2013-04-27 02:22:00,
2013-04-26 19:32:00,57.0,42.0,-100.00,WNW,298,5.0,9.0,57,0.00,,,0.00,,2013-04-27 02:32:00,
2013-04-26 19:42:00,57.0,42.0,-100.00,WNW,298,5.0,9.0,57,0.00,,,0.00,,2013-04-27 02:42:00,
2013-04-26 19:51:00,57.0,42.0,-100.00,WNW,298,5.0,9.0,57,0.00,,,0.00,,2013-04-27 02:51:00,
2013-04-26 20:22:00,53.0,42.0,-100.00,NNW,337,2.0,7.0,65,0.00,,,0.00,,2013-04-27 03:22:00,
2013-04-26 20:32:00,53.0,42.0,-100.00,NNW,337,2.0,7.0,65,0.00,,,0.00,,2013-04-27 03:32:00,
2013-04-26 20:42:00,53.0,42.0,-100.00,NNW,337,2.0,7.0,65,0.00,,,0.00,,2013-04-27 03:42:00,
2013-04-26 20:52:00,53.0,42.0,-100.00,NNW,337,2.0,7.0,65,0.00,,,0.00,,2013-04-27 03:52:00,
2013-04-26 21:22:00,49.0,41.0,-100.00,ESE,106,1.0,4.0,74,0.00,,,0.00,,2013-04-27 04:22:00,
2013-04-26 21:33:00,49.0,41.0,-100.00,ESE,106,1.0,4.0,74,0.00,,,0.00,,2013-04-27 04:33:00,
2013-04-26 21:43:00,49.0,41.0,-100.00,ESE,106,1.0,4.0,74,0.00,,,0.00,,2013-04-27 04:43:00,
2013-04-26 21:52:00,49.0,41.0,-100.00,ESE,106,1.0,4.0,74,0.00,,,0.00,,2013-04-27 04:52:00,
2013-04-26 22:12:00,47.0,39.0,-100.00,ESE,119,3.0,6.0,74,0.00,,,0.00,,2013-04-27 05:12:00,
2013-04-26 22:22:00,47.0,39.0,-100.00,ESE,119,3.0,6.0,74,0.00,,,0.00,,2013-04-27 05:22:00,
2013-04-26 22:32:00,47.0,39.0,-100.00,ESE,119,3.0,6.0,74,0.00,,,0.00,,2013-04-27 05:32:00,
2013-04-26 22:42:00,47.0,39.0,-100.00,ESE,119,3.0,6.0,74,0.00,,,0.00,,2013-04-27 05:42:00,
2013-04-26 22:51:00,47.0,39.0,-100.00,ESE,119,3.0,6.0,74,0.00,,,0.00,,2013-04-27 05:51:00,
2013-04-26 23:12:00,47.0,33.0,-100.00,ESE,110,1.0,4.0,57,0.00,,,0.00,,2013-04-27 06:12:00,